createdAt,value
2023-05-12T08:59:56.505Z,101546.66
2023-05-12T09:02:24.772Z,101533.34
2023-05-12T09:04:52.635Z,101539.63
2023-05-12T09:07:19.870Z,101534.91
2023-05-12T09:09:48.873Z,101530.75
2023-05-12T09:12:17.040Z,101531.22
2023-05-12T09:14:46.039Z,101521.38
2023-05-12T09:17:13.381Z,101538.97
2023-05-12T09:19:40.123Z,101535.84
2023-05-12T09:22:06.966Z,101527.44
2023-05-12T09:24:38.040Z,101552.66
2023-05-12T09:27:05.374Z,101523.63
2023-05-12T09:29:39.522Z,101531.22
2023-05-12T09:32:12.061Z,101541.91
2023-05-12T09:34:41.591Z,101527.81
2023-05-12T09:37:08.756Z,101530.38
2023-05-12T09:39:36.540Z,101525.78
2023-05-12T09:42:03.391Z,101536.41
2023-05-12T09:44:30.144Z,101538.84
2023-05-12T09:47:06.269Z,101534.00
2023-05-12T09:49:32.952Z,101530.66
2023-05-12T09:51:59.864Z,101532.78
2023-05-12T09:54:30.315Z,101534.25
2023-05-12T09:56:59.308Z,101523.09
2023-05-12T09:59:31.207Z,101520.53
2023-05-12T10:02:00.186Z,101522.09
2023-05-12T10:04:29.255Z,101528.72
2023-05-12T10:06:56.409Z,101534.63
2023-05-12T10:09:26.443Z,101524.53
2023-05-12T10:11:54.083Z,101523.22
2023-05-12T10:14:22.745Z,101522.69
2023-05-12T10:16:50.240Z,101519.81
2023-05-12T10:19:17.657Z,101513.63
2023-05-12T10:21:47.358Z,101516.06
2023-05-12T10:24:17.447Z,101514.75
2023-05-12T10:26:44.947Z,101508.94
2023-05-12T10:29:12.678Z,101521.66
2023-05-12T10:31:39.663Z,101507.56
2023-05-12T10:34:07.219Z,101509.66
2023-05-12T10:36:44.600Z,101501.47
2023-05-12T10:39:14.610Z,101500.16
2023-05-12T10:41:41.495Z,101503.38
2023-05-12T10:44:11.240Z,101498.81
2023-05-12T10:46:38.181Z,101504.97
2023-05-12T10:49:10.303Z,101506.13
2023-05-12T10:51:43.243Z,101504.66
2023-05-12T10:54:11.637Z,101488.03
2023-05-12T10:56:41.350Z,101495.88
2023-05-12T10:59:15.056Z,101498.94
2023-05-12T11:01:44.229Z,101498.94
2023-05-12T11:04:15.813Z,101494.91
2023-05-12T11:06:45.187Z,101483.59
2023-05-12T11:09:13.403Z,101483.59
2023-05-12T11:11:40.677Z,101492.06
2023-05-12T11:14:08.515Z,101495.59
2023-05-12T11:16:42.203Z,101501.31
2023-05-12T11:19:09.454Z,101494.47
2023-05-12T11:21:37.471Z,101494.69
2023-05-12T11:24:04.375Z,101486.91
2023-05-12T11:26:31.178Z,101492.63
2023-05-12T11:28:58.607Z,101501.91
2023-05-12T11:31:25.651Z,101488.50
2023-05-12T11:34:11.875Z,101499.75
2023-05-12T11:36:43.473Z,101497.47
2023-05-12T11:39:17.346Z,101499.41
2023-05-12T11:41:44.685Z,101509.00
2023-05-12T11:44:15.077Z,101495.31
2023-05-12T11:46:41.876Z,101501.78
2023-05-12T11:49:12.798Z,101501.50
2023-05-12T11:51:43.272Z,101515.25
2023-05-12T11:54:09.965Z,101505.91
2023-05-12T11:56:36.767Z,101504.84
2023-05-12T11:59:03.463Z,101498.19
2023-05-12T12:01:30.346Z,101494.75
2023-05-12T12:03:57.291Z,101496.72
2023-05-12T12:06:24.086Z,101509.63
2023-05-12T12:08:55.399Z,101496.75
2023-05-12T12:11:23.483Z,101497.28
2023-05-12T12:13:58.025Z,101512.47
2023-05-12T12:16:26.304Z,101501.47
2023-05-12T12:18:53.520Z,101497.72
2023-05-12T12:21:21.124Z,101502.28
2023-05-12T12:23:51.497Z,101507.25
2023-05-12T12:26:20.852Z,101498.41
2023-05-12T12:28:47.925Z,101506.50
2023-05-12T12:31:14.895Z,101508.88
2023-05-12T12:33:41.675Z,101493.13
2023-05-12T12:36:08.619Z,101493.41
2023-05-12T12:38:35.274Z,101505.25
2023-05-12T12:41:01.966Z,101498.88
2023-05-12T12:43:29.028Z,101499.16
2023-05-12T12:45:55.730Z,101501.97
2023-05-12T12:48:22.437Z,101493.34
2023-05-12T12:50:49.100Z,101490.69
2023-05-12T12:53:16.938Z,101487.31
2023-05-12T12:55:43.613Z,101494.41
2023-05-12T12:58:10.252Z,101495.25
2023-05-12T13:00:37.264Z,101487.38
2023-05-12T13:03:04.210Z,101499.50
2023-05-12T13:05:30.929Z,101486.25
2023-05-12T13:07:57.830Z,101485.03
2023-05-12T13:10:25.634Z,101478.00
2023-05-12T13:12:52.690Z,101502.19
2023-05-12T13:15:19.621Z,101484.06
2023-05-12T13:17:46.821Z,101493.50
2023-05-12T13:20:14.823Z,101494.78
2023-05-12T13:22:43.944Z,101488.06
2023-05-12T13:25:11.384Z,101471.16
2023-05-12T13:27:38.815Z,101487.72
2023-05-12T13:30:09.132Z,101488.25
2023-05-12T13:32:36.901Z,101484.69
2023-05-12T13:35:04.435Z,101492.63
2023-05-12T13:37:31.148Z,101488.75
2023-05-12T13:39:57.901Z,101485.94
2023-05-12T13:42:24.564Z,101488.44
2023-05-12T13:44:51.269Z,101493.88
2023-05-12T13:47:18.590Z,101483.50
2023-05-12T13:49:45.755Z,101488.81
2023-05-12T13:52:12.470Z,101487.81
2023-05-12T13:54:39.248Z,101486.31
2023-05-12T13:57:06.345Z,101466.00
2023-05-12T13:59:33.009Z,101474.19
2023-05-12T14:02:00.476Z,101480.50
2023-05-12T14:04:27.309Z,101467.22
2023-05-12T14:06:54.781Z,101471.59
2023-05-12T14:09:21.758Z,101474.16
2023-05-12T14:11:48.412Z,101480.38
2023-05-12T14:14:15.087Z,101475.44
2023-05-12T14:16:41.769Z,101485.22
2023-05-12T14:19:08.574Z,101467.75
2023-05-12T14:21:35.355Z,101465.78
2023-05-12T14:24:02.108Z,101467.38
2023-05-12T14:26:28.820Z,101474.19
2023-05-12T14:28:56.001Z,101476.38
2023-05-12T14:31:22.841Z,101482.56
2023-05-12T14:33:49.731Z,101481.47
2023-05-12T14:36:16.591Z,101472.31
2023-05-12T14:38:43.268Z,101472.53
2023-05-12T14:41:09.947Z,101473.00
2023-05-12T14:43:36.718Z,101480.16
2023-05-12T14:46:04.608Z,101475.09
2023-05-12T14:48:31.885Z,101470.50
2023-05-12T14:50:58.731Z,101475.06
2023-05-12T14:53:25.653Z,101476.59
2023-05-12T14:55:52.599Z,101470.03
2023-05-12T14:58:20.887Z,101462.34
2023-05-12T15:00:48.690Z,101473.47
2023-05-12T15:03:15.602Z,101471.47
2023-05-12T15:06:01.691Z,101481.72
2023-05-12T15:08:29.303Z,101477.50
2023-05-12T15:10:55.986Z,101488.13
2023-05-12T15:13:22.870Z,101472.06
2023-05-12T15:15:51.034Z,101465.50
2023-05-12T15:18:20.583Z,101475.25
2023-05-12T15:20:47.283Z,101465.34
2023-05-12T15:23:14.025Z,101468.97
2023-05-12T15:25:41.418Z,101468.13
2023-05-12T15:28:08.199Z,101462.41
2023-05-12T15:30:36.176Z,101466.22
2023-05-12T15:33:06.771Z,101469.94
2023-05-12T15:35:33.818Z,101481.47
2023-05-12T15:38:00.546Z,101472.28
2023-05-12T15:40:27.260Z,101466.84
2023-05-12T15:42:54.026Z,101471.44
2023-05-12T15:45:22.071Z,101476.50
2023-05-12T15:47:49.044Z,101469.94
2023-05-12T15:50:19.936Z,101472.66
2023-05-12T15:52:47.593Z,101475.84
2023-05-12T15:55:14.381Z,101470.41
2023-05-12T15:57:41.398Z,101461.88
2023-05-12T16:00:08.608Z,101463.97
2023-05-12T16:02:41.336Z,101467.06
2023-05-12T16:05:09.476Z,101471.44
2023-05-12T16:07:36.311Z,101461.94
2023-05-12T16:10:04.012Z,101467.44
2023-05-12T16:12:30.886Z,101463.41
2023-05-12T16:14:57.514Z,101467.31
2023-05-12T16:17:24.247Z,101463.03
2023-05-12T16:19:53.234Z,101460.31
2023-05-12T16:22:19.928Z,101464.13
2023-05-12T16:24:46.683Z,101460.50
2023-05-12T16:27:13.418Z,101461.63
2023-05-12T16:29:40.163Z,101458.31
2023-05-12T16:32:07.615Z,101461.69
2023-05-12T16:34:34.388Z,101456.69
2023-05-12T16:37:01.120Z,101464.31
2023-05-12T16:39:27.810Z,101460.69
2023-05-12T16:41:54.741Z,101458.13
2023-05-12T16:44:21.386Z,101463.75
2023-05-12T16:46:48.126Z,101468.84
2023-05-12T16:49:14.868Z,101475.41
2023-05-12T16:51:41.834Z,101468.53
2023-05-12T16:54:08.707Z,101462.22
